Time;durP1;ratioP1;P1;durP2;ratioP2;P2;SDS_P1;SDS_P2;PMS_P1;PMS_P2;Temp;Humidity;BMP_temperature;BMP_pressure;BME280_temperature;BME280_humidity;BME280_pressure;Samples;Min_cycle;Max_cycle;Signal;HPM_P1;HPM_P2
2022/04/24 00:00:16;;;;;;;;;20.00;20.00;;;;;;;;5028110;28;45752;-68
2022/04/24 00:02:42;;;;;;;;;20.25;20.00;;;;;;;;5032831;28;45459;-69
2022/04/24 00:05:07;;;;;;;;;21.25;21.25;;;;;;;;5032492;28;45377;-68
2022/04/24 00:07:32;;;;;;;;;25.00;21.75;;;;;;;;5032312;28;45551;-68
2022/04/24 00:09:57;;;;;;;;;30.50;29.25;;;;;;;;5030021;28;45454;-69
2022/04/24 00:12:23;;;;;;;;;23.75;23.00;;;;;;;;5029188;28;45531;-68
2022/04/24 00:14:48;;;;;;;;;25.00;25.00;;;;;;;;5032411;28;45455;-69
2022/04/24 00:17:15;;;;;;;;;20.75;20.50;;;;;;;;5032060;28;46067;-63
2022/04/24 00:19:41;;;;;;;;;18.25;18.25;;;;;;;;5030375;28;45961;-63
2022/04/24 00:22:06;;;;;;;;;21.75;20.25;;;;;;;;5033142;28;46114;-62
2022/04/24 00:24:32;;;;;;;;;22.00;22.00;;;;;;;;5028190;28;45480;-63
2022/04/24 00:26:58;;;;;;;;;17.00;16.00;;;;;;;;5025135;28;45619;-62
2022/04/24 00:29:23;;;;;;;;;20.50;18.00;;;;;;;;5030130;28;45920;-62
2022/04/24 00:31:48;;;;;;;;;18.50;18.50;;;;;;;;5030955;28;45860;-65
2022/04/24 00:34:13;;;;;;;;;16.50;16.50;;;;;;;;5034561;28;45528;-64
2022/04/24 00:36:39;;;;;;;;;19.25;19.25;;;;;;;;5031618;28;46142;-63
2022/04/24 00:39:04;;;;;;;;;20.25;19.25;;;;;;;;5031889;28;45490;-63
2022/04/24 00:41:30;;;;;;;;;15.50;15.50;;;;;;;;5032085;28;45535;-63
2022/04/24 00:43:55;;;;;;;;;18.00;17.50;;;;;;;;5028651;28;45457;-63
2022/04/24 00:46:36;;;;;;;;;17.00;16.75;;;;;;;;5029103;28;46755;-63
2022/04/24 00:49:01;;;;;;;;;18.50;16.75;;;;;;;;5029131;28;45467;-64
2022/04/24 00:51:28;;;;;;;;;17.25;17.25;;;;;;;;5030424;28;45370;-63
2022/04/24 00:53:54;;;;;;;;;17.25;17.00;;;;;;;;5031453;28;45421;-63
2022/04/24 00:56:19;;;;;;;;;17.25;14.00;;;;;;;;5031448;28;46011;-62
2022/04/24 00:58:45;;;;;;;;;15.00;15.00;;;;;;;;5032219;28;45484;-63
2022/04/24 01:01:10;;;;;;;;;15.00;15.00;;;;;;;;5030001;28;45442;-65
2022/04/24 01:03:35;;;;;;;;;17.50;16.00;;;;;;;;5032321;28;45558;-63
2022/04/24 01:06:00;;;;;;;;;18.25;17.25;;;;;;;;5027062;28;48274;-61
2022/04/24 01:08:26;;;;;;;;;20.00;18.00;;;;;;;;5020249;28;45355;-63
2022/04/24 01:10:51;;;;;;;;;15.00;15.00;;;;;;;;5032090;28;45664;-63
2022/04/24 01:13:16;;;;;;;;;17.75;17.75;;;;;;;;5033008;28;45652;-63
2022/04/24 01:15:42;;;;;;;;;20.50;19.25;;;;;;;;5027911;28;47734;-61
2022/04/24 01:18:08;;;;;;;;;17.75;15.25;;;;;;;;5026921;28;45583;-61
2022/04/24 01:20:34;;;;;;;;;16.50;16.25;;;;;;;;5030936;28;45452;-61
2022/04/24 01:22:59;;;;;;;;;19.75;19.75;;;;;;;;5031307;28;45532;-61
2022/04/24 01:25:24;;;;;;;;;18.75;18.25;;;;;;;;5032346;28;45817;-62
2022/04/24 01:27:50;;;;;;;;;16.50;15.25;;;;;;;;5032943;28;45636;-61
2022/04/24 01:30:15;;;;;;;;;18.00;17.25;;;;;;;;5031061;28;45699;-62
2022/04/24 01:32:40;;;;;;;;;16.75;16.00;;;;;;;;5030601;28;45374;-62
2022/04/24 01:35:07;;;;;;;;;15.50;15.50;;;;;;;;5030810;28;45514;-61
2022/04/24 01:37:32;;;;;;;;;16.25;15.50;;;;;;;;5031692;28;45499;-62
2022/04/24 01:39:57;;;;;;;;;15.25;14.75;;;;;;;;5033344;28;45369;-62
2022/04/24 01:42:23;;;;;;;;;17.50;17.50;;;;;;;;5029955;28;45478;-61
2022/04/24 01:44:48;;;;;;;;;15.50;15.50;;;;;;;;5024718;28;46721;-61
2022/04/24 01:47:13;;;;;;;;;18.50;18.50;;;;;;;;5018225;28;45684;-62
2022/04/24 01:49:38;;;;;;;;;14.00;13.50;;;;;;;;5030917;28;45327;-62
2022/04/24 01:52:04;;;;;;;;;19.25;18.00;;;;;;;;5033080;28;45368;-63
2022/04/24 01:54:29;;;;;;;;;17.75;16.00;;;;;;;;5031199;28;45462;-62
2022/04/24 01:56:55;;;;;;;;;19.50;18.50;;;;;;;;5030886;28;45499;-61
2022/04/24 01:59:20;;;;;;;;;17.00;16.75;;;;;;;;5031281;28;45417;-62
2022/04/24 02:01:45;;;;;;;;;18.50;14.75;;;;;;;;5030994;28;45506;-62
2022/04/24 02:04:10;;;;;;;;;16.00;15.75;;;;;;;;5028212;28;45396;-61
2022/04/24 02:06:36;;;;;;;;;15.50;15.50;;;;;;;;5030769;28;45452;-61
2022/04/24 02:09:01;;;;;;;;;12.75;12.75;;;;;;;;5026940;28;45420;-61
2022/04/24 02:11:26;;;;;;;;;17.00;17.00;;;;;;;;5019574;28;45397;-63
2022/04/24 02:13:51;;;;;;;;;17.75;16.25;;;;;;;;5030532;28;46157;-62
2022/04/24 02:16:16;;;;;;;;;19.25;15.75;;;;;;;;5032433;28;45362;-63
2022/04/24 02:18:41;;;;;;;;;13.25;13.25;;;;;;;;5031358;28;45773;-62
2022/04/24 02:21:07;;;;;;;;;14.50;12.50;;;;;;;;5029520;28;45576;-62
2022/04/24 02:23:32;;;;;;;;;13.50;13.50;;;;;;;;5029938;28;46546;-62
2022/04/24 02:25:57;;;;;;;;;16.75;13.50;;;;;;;;5031457;28;45668;-63
2022/04/24 02:28:22;;;;;;;;;14.50;14.50;;;;;;;;5034986;28;45379;-62
2022/04/24 02:30:48;;;;;;;;;17.00;14.00;;;;;;;;5035038;28;45432;-63
2022/04/24 02:33:13;;;;;;;;;14.00;14.00;;;;;;;;5033873;28;46465;-63
2022/04/24 02:35:38;;;;;;;;;18.75;17.75;;;;;;;;5032644;28;45439;-63
2022/04/24 02:38:04;;;;;;;;;14.50;14.50;;;;;;;;5033996;28;45722;-62
2022/04/24 02:40:29;;;;;;;;;13.25;12.50;;;;;;;;5034019;28;45477;-63
2022/04/24 02:42:54;;;;;;;;;22.00;19.00;;;;;;;;5035994;28;46316;-62
2022/04/24 02:45:20;;;;;;;;;15.75;14.75;;;;;;;;5033962;28;45467;-63
2022/04/24 02:47:45;;;;;;;;;17.75;16.75;;;;;;;;5029138;28;45775;-62
2022/04/24 02:50:11;;;;;;;;;14.25;13.50;;;;;;;;5020352;28;45444;-63
2022/04/24 02:52:46;;;;;;;;;13.00;12.75;;;;;;;;5033429;28;46426;-63
2022/04/24 02:55:12;;;;;;;;;11.75;11.75;;;;;;;;5031335;28;45412;-62
2022/04/24 02:57:37;;;;;;;;;14.50;14.50;;;;;;;;5033936;28;45345;-64
2022/04/24 03:00:04;;;;;;;;;15.00;15.00;;;;;;;;5032440;28;45376;-62
2022/04/24 03:02:29;;;;;;;;;16.25;15.75;;;;;;;;5032504;28;47315;-62
2022/04/24 03:04:54;;;;;;;;;16.50;15.50;;;;;;;;5033587;28;45460;-62
2022/04/24 03:07:19;;;;;;;;;15.50;15.50;;;;;;;;5035667;28;45341;-62
2022/04/24 03:09:44;;;;;;;;;20.00;18.25;;;;;;;;5029016;28;45565;-63
2022/04/24 03:12:10;;;;;;;;;17.50;17.50;;;;;;;;5028123;28;45619;-62
2022/04/24 03:14:35;;;;;;;;;18.50;17.75;;;;;;;;5032612;28;46190;-62
2022/04/24 03:17:00;;;;;;;;;22.50;21.50;;;;;;;;5033579;28;45409;-62
2022/04/24 03:19:25;;;;;;;;;20.00;19.25;;;;;;;;5033862;28;45568;-62
2022/04/24 03:21:51;;;;;;;;;19.50;19.25;;;;;;;;5034767;28;45715;-63
2022/04/24 03:24:16;;;;;;;;;20.25;19.00;;;;;;;;5032856;28;45507;-63
2022/04/24 03:26:41;;;;;;;;;17.00;15.25;;;;;;;;5032548;28;45365;-62
2022/04/24 03:29:06;;;;;;;;;22.50;22.50;;;;;;;;5033173;28;45723;-65
2022/04/24 03:31:32;;;;;;;;;19.25;19.00;;;;;;;;5033152;28;45773;-63
2022/04/24 03:33:58;;;;;;;;;21.50;21.50;;;;;;;;5034709;28;45897;-64
2022/04/24 03:36:23;;;;;;;;;21.50;21.50;;;;;;;;5032883;28;45444;-63
2022/04/24 03:38:48;;;;;;;;;21.75;21.75;;;;;;;;5032104;28;45824;-63
2022/04/24 03:41:13;;;;;;;;;21.50;21.50;;;;;;;;5033002;28;45920;-63
2022/04/24 03:43:38;;;;;;;;;19.00;19.00;;;;;;;;5033156;28;45555;-63
2022/04/24 03:46:07;;;;;;;;;21.25;21.00;;;;;;;;5034473;28;45568;-63
2022/04/24 03:48:32;;;;;;;;;24.00;22.25;;;;;;;;5032869;28;45546;-63
2022/04/24 03:50:57;;;;;;;;;16.50;15.00;;;;;;;;5032877;28;45958;-63
2022/04/24 03:53:22;;;;;;;;;20.25;19.50;;;;;;;;5032754;28;45489;-63
2022/04/24 03:55:48;;;;;;;;;20.50;20.00;;;;;;;;5033084;28;45505;-63
2022/04/24 03:58:13;;;;;;;;;27.50;27.25;;;;;;;;5034635;28;45388;-63
2022/04/24 04:00:38;;;;;;;;;28.00;24.50;;;;;;;;5032134;28;45770;-62
2022/04/24 04:03:03;;;;;;;;;27.25;24.25;;;;;;;;5028397;28;45691;-63
2022/04/24 04:05:29;;;;;;;;;25.00;23.00;;;;;;;;5020257;28;45478;-63
2022/04/24 04:07:55;;;;;;;;;22.25;22.25;;;;;;;;5032781;28;45415;-62
2022/04/24 04:10:21;;;;;;;;;22.50;21.75;;;;;;;;5034446;28;45672;-62
2022/04/24 04:12:47;;;;;;;;;21.25;20.50;;;;;;;;5034777;28;45427;-61
2022/04/24 04:15:12;;;;;;;;;21.75;21.75;;;;;;;;5034387;28;45338;-62
2022/04/24 04:17:37;;;;;;;;;27.00;25.75;;;;;;;;5032027;28;45517;-61
2022/04/24 04:20:03;;;;;;;;;27.25;25.50;;;;;;;;5034525;28;46212;-62
2022/04/24 04:22:28;;;;;;;;;24.25;22.75;;;;;;;;5032336;28;45309;-70
2022/04/24 04:24:53;;;;;;;;;25.75;24.75;;;;;;;;5036470;28;45487;-62
2022/04/24 04:27:19;;;;;;;;;21.25;21.25;;;;;;;;5034393;28;45481;-62
2022/04/24 04:29:44;;;;;;;;;24.00;21.00;;;;;;;;5032963;28;46067;-62
2022/04/24 04:32:09;;;;;;;;;21.25;21.25;;;;;;;;5034382;28;45487;-62
2022/04/24 04:34:34;;;;;;;;;22.75;21.75;;;;;;;;5032825;28;45542;-62
2022/04/24 04:36:59;;;;;;;;;24.00;24.00;;;;;;;;5036605;28;45398;-62
2022/04/24 04:39:25;;;;;;;;;25.00;22.50;;;;;;;;5033979;28;46699;-62
2022/04/24 04:41:50;;;;;;;;;21.75;21.50;;;;;;;;5034045;28;45332;-62
2022/04/24 04:44:15;;;;;;;;;18.00;18.00;;;;;;;;5034326;28;45341;-62
2022/04/24 04:46:40;;;;;;;;;29.00;25.25;;;;;;;;5033294;28;45415;-63
2022/04/24 04:49:05;;;;;;;;;24.25;23.00;;;;;;;;5034762;28;45609;-62
2022/04/24 04:51:31;;;;;;;;;28.75;25.25;;;;;;;;5033987;28;45432;-63
2022/04/24 04:53:56;;;;;;;;;26.00;24.75;;;;;;;;5033950;28;45396;-62
2022/04/24 04:56:22;;;;;;;;;27.25;26.00;;;;;;;;5033029;28;45536;-62
2022/04/24 04:58:47;;;;;;;;;23.50;22.50;;;;;;;;5033931;28;45912;-62
2022/04/24 05:01:12;;;;;;;;;22.75;22.75;;;;;;;;5035985;28;45273;-62
2022/04/24 05:03:38;;;;;;;;;26.25;24.75;;;;;;;;5033910;28;45385;-61
2022/04/24 05:06:03;;;;;;;;;21.75;21.75;;;;;;;;5033721;28;45467;-62
2022/04/24 05:08:28;;;;;;;;;26.00;24.00;;;;;;;;5033704;28;45665;-61
2022/04/24 05:10:53;;;;;;;;;23.25;23.25;;;;;;;;5033899;28;45357;-62
2022/04/24 05:13:20;;;;;;;;;15.75;14.75;;;;;;;;5035334;28;45394;-63
2022/04/24 05:15:45;;;;;;;;;18.75;17.00;;;;;;;;5034307;28;45589;-62
2022/04/24 05:18:10;;;;;;;;;24.00;20.75;;;;;;;;5033229;28;46443;-63
2022/04/24 05:20:36;;;;;;;;;23.25;22.50;;;;;;;;5033557;28;45433;-62
2022/04/24 05:23:05;;;;;;;;;24.00;21.75;;;;;;;;5032686;28;46033;-62
2022/04/24 05:25:30;;;;;;;;;24.75;23.00;;;;;;;;5032075;28;45543;-62
2022/04/24 05:27:56;;;;;;;;;21.00;19.00;;;;;;;;5033396;28;45601;-62
2022/04/24 05:30:23;;;;;;;;;16.00;16.00;;;;;;;;5032984;28;45316;-62
2022/04/24 05:32:50;;;;;;;;;25.25;23.50;;;;;;;;5033281;28;45494;-63
2022/04/24 05:35:15;;;;;;;;;25.25;24.50;;;;;;;;5032117;28;45398;-63
2022/04/24 05:37:41;;;;;;;;;24.50;24.50;;;;;;;;5031306;28;46063;-63
2022/04/24 05:40:06;;;;;;;;;22.75;22.00;;;;;;;;5035535;28;45388;-63
2022/04/24 05:42:32;;;;;;;;;25.25;23.00;;;;;;;;5033287;28;46515;-63
2022/04/24 05:44:58;;;;;;;;;22.50;21.50;;;;;;;;5033333;28;45298;-62
2022/04/24 05:47:23;;;;;;;;;25.00;24.00;;;;;;;;5031620;28;47869;-63
2022/04/24 05:49:49;;;;;;;;;26.00;25.75;;;;;;;;5033158;28;45547;-63
2022/04/24 05:52:14;;;;;;;;;20.25;20.25;;;;;;;;5035325;28;45511;-63
2022/04/24 05:54:39;;;;;;;;;20.50;20.50;;;;;;;;5033139;28;45343;-63
2022/04/24 05:57:04;;;;;;;;;22.25;22.25;;;;;;;;5033053;28;46348;-63
2022/04/24 05:59:30;;;;;;;;;25.00;22.00;;;;;;;;5033155;28;45530;-63
2022/04/24 06:01:55;;;;;;;;;27.50;25.50;;;;;;;;5036656;28;45298;-62
2022/04/24 06:04:20;;;;;;;;;21.50;21.50;;;;;;;;5037590;28;45302;-63
2022/04/24 06:06:45;;;;;;;;;25.25;24.50;;;;;;;;5035785;28;46668;-63
2022/04/24 06:09:10;;;;;;;;;24.25;24.25;;;;;;;;5035053;28;45424;-63
2022/04/24 06:11:37;;;;;;;;;30.00;27.50;;;;;;;;5035394;28;45289;-64
2022/04/24 06:14:02;;;;;;;;;26.00;23.25;;;;;;;;5033464;28;45581;-63
2022/04/24 06:16:28;;;;;;;;;23.75;20.00;;;;;;;;5051812;28;47603;-63
2022/04/24 06:18:53;;;;;;;;;24.00;23.25;;;;;;;;5038302;28;45314;-64
2022/04/24 06:21:18;;;;;;;;;26.50;22.00;;;;;;;;5031921;28;45318;-64
2022/04/24 06:23:43;;;;;;;;;26.75;22.75;;;;;;;;5028803;28;45377;-63
2022/04/24 06:26:08;;;;;;;;;26.00;23.00;;;;;;;;5036321;28;45505;-64
2022/04/24 06:28:34;;;;;;;;;22.50;21.50;;;;;;;;5035999;28;45639;-64
2022/04/24 06:30:59;;;;;;;;;22.00;19.50;;;;;;;;5033704;28;45370;-63
2022/04/24 06:33:24;;;;;;;;;21.75;21.75;;;;;;;;5034292;28;45507;-61
2022/04/24 06:35:49;;;;;;;;;25.75;24.00;;;;;;;;5035686;28;45741;-63
2022/04/24 06:38:16;;;;;;;;;25.75;24.25;;;;;;;;5033150;28;45380;-63
2022/04/24 06:40:41;;;;;;;;;25.50;24.00;;;;;;;;5034636;28;45408;-63
2022/04/24 06:43:07;;;;;;;;;21.75;19.25;;;;;;;;5038102;28;45773;-63
2022/04/24 06:45:34;;;;;;;;;24.00;22.75;;;;;;;;5035934;28;46702;-63
2022/04/24 06:48:06;;;;;;;;;24.75;23.75;;;;;;;;5031290;28;45349;-63
2022/04/24 06:50:32;;;;;;;;;24.00;24.00;;;;;;;;5024142;28;45499;-63
2022/04/24 06:53:07;;;;;;;;;27.25;27.00;;;;;;;;5034583;28;45578;-63
2022/04/24 06:55:37;;;;;;;;;25.50;23.50;;;;;;;;5035618;28;46662;-64
2022/04/24 06:58:03;;;;;;;;;29.50;28.50;;;;;;;;5037856;28;45306;-63
2022/04/24 07:00:29;;;;;;;;;24.25;24.25;;;;;;;;5035712;28;45328;-63
2022/04/24 07:02:55;;;;;;;;;29.50;28.25;;;;;;;;5035583;28;45550;-63
2022/04/24 07:05:21;;;;;;;;;30.25;28.25;;;;;;;;5035343;28;46303;-63
2022/04/24 07:07:46;;;;;;;;;27.25;26.25;;;;;;;;5035768;28;45490;-63
2022/04/24 07:10:12;;;;;;;;;26.00;24.75;;;;;;;;5033165;28;45330;-63
2022/04/24 07:12:44;;;;;;;;;33.00;28.75;;;;;;;;5033078;28;45534;-63
2022/04/24 07:15:09;;;;;;;;;33.00;31.25;;;;;;;;5030746;28;47577;-64
2022/04/24 07:17:34;;;;;;;;;36.50;31.50;;;;;;;;5024937;28;45373;-63
2022/04/24 07:19:59;;;;;;;;;34.75;31.75;;;;;;;;5035877;28;45365;-63
2022/04/24 07:22:25;;;;;;;;;29.00;27.25;;;;;;;;5036498;28;45352;-64
2022/04/24 07:24:50;;;;;;;;;37.75;32.25;;;;;;;;5036761;28;45293;-64
2022/04/24 07:27:15;;;;;;;;;36.00;31.25;;;;;;;;5033781;28;45473;-64
2022/04/24 07:29:41;;;;;;;;;33.00;31.00;;;;;;;;5034179;28;45460;-62
2022/04/24 07:32:06;;;;;;;;;36.25;32.25;;;;;;;;5033997;28;45490;-62
2022/04/24 07:34:31;;;;;;;;;37.50;33.00;;;;;;;;5034993;28;45700;-62
2022/04/24 07:36:56;;;;;;;;;36.50;32.75;;;;;;;;5037362;28;45735;-62
2022/04/24 07:39:22;;;;;;;;;36.75;31.75;;;;;;;;5035272;28;45436;-62
2022/04/24 07:41:47;;;;;;;;;37.50;33.00;;;;;;;;5035077;28;45395;-62
2022/04/24 07:44:12;;;;;;;;;38.25;33.25;;;;;;;;5033578;28;47680;-62
2022/04/24 07:46:37;;;;;;;;;35.75;32.75;;;;;;;;5035139;28;45415;-62
2022/04/24 07:49:02;;;;;;;;;36.00;32.75;;;;;;;;5032665;28;45385;-62
2022/04/24 07:51:28;;;;;;;;;35.00;32.25;;;;;;;;5012529;28;45393;-62
2022/04/24 07:53:53;;;;;;;;;37.00;31.25;;;;;;;;5028523;28;47477;-61
2022/04/24 07:56:18;;;;;;;;;34.50;30.75;;;;;;;;5034708;28;45526;-64
2022/04/24 07:58:44;;;;;;;;;35.75;31.75;;;;;;;;5035170;28;45412;-63
2022/04/24 08:01:11;;;;;;;;;41.25;36.00;;;;;;;;5032325;28;45378;-63
2022/04/24 08:03:36;;;;;;;;;30.00;29.75;;;;;;;;5032766;28;46460;-63
2022/04/24 08:06:01;;;;;;;;;41.00;35.50;;;;;;;;5034504;28;45336;-63
2022/04/24 08:08:26;;;;;;;;;36.75;32.75;;;;;;;;5034839;28;45324;-63
2022/04/24 08:10:53;;;;;;;;;47.75;36.50;;;;;;;;5033785;28;45269;-62
2022/04/24 08:13:19;;;;;;;;;34.50;31.25;;;;;;;;5035915;28;46507;-62
2022/04/24 08:15:45;;;;;;;;;41.25;36.50;;;;;;;;5035142;28;45508;-63
2022/04/24 08:18:10;;;;;;;;;32.50;30.50;;;;;;;;5034526;28;45483;-62
2022/04/24 08:20:36;;;;;;;;;37.00;34.50;;;;;;;;5034337;28;45532;-62
2022/04/24 08:23:04;;;;;;;;;41.25;33.75;;;;;;;;5032385;28;45757;-62
2022/04/24 08:25:34;;;;;;;;;38.25;34.00;;;;;;;;5034118;28;45428;-62
2022/04/24 08:27:59;;;;;;;;;39.75;33.75;;;;;;;;5035284;28;45431;-62
2022/04/24 08:30:25;;;;;;;;;41.25;35.75;;;;;;;;5029400;28;45516;-63
2022/04/24 08:32:50;;;;;;;;;40.50;35.75;;;;;;;;5025941;28;46461;-62
2022/04/24 08:35:16;;;;;;;;;37.25;34.25;;;;;;;;5034196;28;45333;-62
2022/04/24 08:37:42;;;;;;;;;38.00;33.75;;;;;;;;5033139;28;45456;-63
2022/04/24 08:40:08;;;;;;;;;33.00;30.25;;;;;;;;5036388;28;45482;-62
2022/04/24 08:42:33;;;;;;;;;39.00;33.00;;;;;;;;5033805;28;45432;-63
2022/04/24 08:44:59;;;;;;;;;38.75;34.25;;;;;;;;5032334;28;45391;-62
2022/04/24 08:47:25;;;;;;;;;43.50;35.75;;;;;;;;5033992;28;45459;-63
2022/04/24 08:49:54;;;;;;;;;39.25;34.00;;;;;;;;5032820;28;45491;-63
2022/04/24 08:52:20;;;;;;;;;41.50;36.75;;;;;;;;5035341;28;45609;-63
2022/04/24 08:54:45;;;;;;;;;39.00;33.75;;;;;;;;5034406;28;45300;-63
2022/04/24 08:57:14;;;;;;;;;42.00;35.75;;;;;;;;5034073;28;45395;-63
2022/04/24 08:59:39;;;;;;;;;37.25;33.00;;;;;;;;5034019;28;45441;-62
2022/04/24 09:02:05;;;;;;;;;39.50;34.75;;;;;;;;5033745;28;46468;-63
2022/04/24 09:04:34;;;;;;;;;45.50;38.00;;;;;;;;5033978;28;45502;-63
2022/04/24 09:07:00;;;;;;;;;35.25;32.00;;;;;;;;5035890;28;45347;-63
2022/04/24 09:09:25;;;;;;;;;35.75;32.00;;;;;;;;5029122;28;45483;-63
2022/04/24 09:11:51;;;;;;;;;40.00;37.00;;;;;;;;5024109;28;48105;-63
2022/04/24 09:14:19;;;;;;;;;37.50;34.75;;;;;;;;5032402;28;45424;-64
2022/04/24 09:16:49;;;;;;;;;37.75;33.50;;;;;;;;5016924;28;47221;-63
2022/04/24 09:19:20;;;;;;;;;32.50;32.25;;;;;;;;5031999;28;45388;-64
2022/04/24 09:21:45;;;;;;;;;32.00;30.50;;;;;;;;5035033;28;45847;-63
2022/04/24 09:24:10;;;;;;;;;31.00;28.50;;;;;;;;5033394;28;45470;-63
2022/04/24 09:26:35;;;;;;;;;33.00;32.50;;;;;;;;5033809;28;45376;-63
2022/04/24 09:29:01;;;;;;;;;33.75;32.75;;;;;;;;5032172;28;45638;-63
2022/04/24 09:31:29;;;;;;;;;36.75;34.50;;;;;;;;5030839;28;48256;-63
2022/04/24 09:33:54;;;;;;;;;37.00;33.00;;;;;;;;5035363;28;45360;-63
2022/04/24 09:36:23;;;;;;;;;36.75;34.75;;;;;;;;5031412;28;45466;-63
2022/04/24 09:38:49;;;;;;;;;37.75;33.25;;;;;;;;5033939;28;45506;-64
2022/04/24 09:41:15;;;;;;;;;31.50;29.00;;;;;;;;5033517;28;45255;-64
2022/04/24 09:43:41;;;;;;;;;35.75;33.50;;;;;;;;5033588;28;45266;-63
2022/04/24 09:46:07;;;;;;;;;30.00;27.75;;;;;;;;5031012;28;45393;-63
2022/04/24 09:48:32;;;;;;;;;31.50;30.25;;;;;;;;5032219;28;45406;-63
2022/04/24 09:50:58;;;;;;;;;30.25;29.75;;;;;;;;5033071;28;45340;-63
2022/04/24 09:53:25;;;;;;;;;28.50;27.75;;;;;;;;5033054;28;45596;-63
2022/04/24 09:55:50;;;;;;;;;31.50;29.50;;;;;;;;5014721;28;45528;-63
2022/04/24 09:58:16;;;;;;;;;28.25;28.25;;;;;;;;5035293;28;45303;-63
2022/04/24 10:00:42;;;;;;;;;36.00;31.50;;;;;;;;5032179;28;45391;-63
2022/04/24 10:03:08;;;;;;;;;35.00;31.00;;;;;;;;5032960;28;45318;-63
2022/04/24 10:05:33;;;;;;;;;25.50;25.50;;;;;;;;5032076;28;45420;-64
2022/04/24 10:07:59;;;;;;;;;27.50;27.50;;;;;;;;5034087;28;45360;-64
2022/04/24 10:10:24;;;;;;;;;28.50;26.25;;;;;;;;5033925;28;45269;-63
2022/04/24 10:12:50;;;;;;;;;31.75;27.25;;;;;;;;5034124;28;45542;-63
2022/04/24 10:15:17;;;;;;;;;21.25;21.25;;;;;;;;5032890;28;45467;-64
2022/04/24 10:17:54;;;;;;;;;33.25;31.00;;;;;;;;5032852;28;45175;-64
2022/04/24 10:20:25;;;;;;;;;24.25;24.00;;;;;;;;5032583;28;46011;-63
2022/04/24 10:22:53;;;;;;;;;29.25;26.50;;;;;;;;5032738;28;45356;-64
2022/04/24 10:25:27;;;;;;;;;27.75;25.25;;;;;;;;5034270;28;45355;-63
2022/04/24 10:27:53;;;;;;;;;27.50;26.00;;;;;;;;5043795;28;45555;-64
2022/04/24 10:30:19;;;;;;;;;27.75;27.75;;;;;;;;5022622;28;45998;-63
2022/04/24 10:32:48;;;;;;;;;30.25;27.75;;;;;;;;5014749;28;45369;-63
2022/04/24 10:35:18;;;;;;;;;28.75;27.75;;;;;;;;5017771;28;45339;-64
2022/04/24 10:37:43;;;;;;;;;24.25;22.50;;;;;;;;5040645;28;45479;-64
2022/04/24 10:40:13;;;;;;;;;32.00;30.50;;;;;;;;5028965;28;47251;-63
2022/04/24 10:42:39;;;;;;;;;22.50;22.50;;;;;;;;5024773;28;46289;-64
2022/04/24 10:45:14;;;;;;;;;25.00;25.00;;;;;;;;5015181;28;45312;-63
2022/04/24 10:48:05;;;;;;;;;25.25;25.25;;;;;;;;5025921;28;45312;-64
2022/04/24 10:50:30;;;;;;;;;24.25;24.25;;;;;;;;5021673;28;45527;-64
2022/04/24 10:52:55;;;;;;;;;27.25;27.25;;;;;;;;5034593;28;45414;-64
2022/04/24 10:55:29;;;;;;;;;29.75;27.50;;;;;;;;5028230;28;45364;-64
2022/04/24 10:58:00;;;;;;;;;29.25;25.50;;;;;;;;5028993;28;45428;-64
2022/04/24 11:00:31;;;;;;;;;43.00;37.00;;;;;;;;5022031;28;46548;-64
2022/04/24 11:03:04;;;;;;;;;26.00;26.00;;;;;;;;5025286;28;45598;-64
2022/04/24 11:05:35;;;;;;;;;25.50;24.50;;;;;;;;5025823;28;45598;-63
2022/04/24 11:08:02;;;;;;;;;42.50;37.00;;;;;;;;5023900;28;45344;-62
2022/04/24 11:10:27;;;;;;;;;29.00;27.00;;;;;;;;5026016;28;45621;-62
2022/04/24 11:12:54;;;;;;;;;24.75;23.75;;;;;;;;5030826;28;45366;-63
2022/04/24 11:15:20;;;;;;;;;32.00;29.25;;;;;;;;5032961;28;45484;-63
2022/04/24 11:17:45;;;;;;;;;23.75;22.00;;;;;;;;5032527;28;45329;-63
2022/04/24 11:20:13;;;;;;;;;24.50;24.25;;;;;;;;5019013;28;46268;-63
2022/04/24 11:22:46;;;;;;;;;34.00;28.75;;;;;;;;5025180;28;45392;-63
2022/04/24 11:25:12;;;;;;;;;28.25;26.75;;;;;;;;5022744;28;45339;-63
2022/04/24 11:27:37;;;;;;;;;21.00;21.00;;;;;;;;5022740;28;45536;-62
2022/04/24 11:30:13;;;;;;;;;22.75;22.75;;;;;;;;5028727;28;47304;-62
2022/04/24 11:32:38;;;;;;;;;25.25;24.25;;;;;;;;5028359;28;45381;-63
2022/04/24 11:35:06;;;;;;;;;28.00;28.00;;;;;;;;5019426;28;45352;-63
2022/04/24 11:37:31;;;;;;;;;22.00;22.00;;;;;;;;5022054;28;45372;-63
2022/04/24 11:40:00;;;;;;;;;21.25;21.25;;;;;;;;5020982;28;47158;-63
2022/04/24 11:42:25;;;;;;;;;24.25;23.50;;;;;;;;5019754;28;45383;-63
2022/04/24 11:50:18;;;;;;;;;20.00;20.00;;;;;;;;5031296;28;45353;-63
2022/04/24 11:52:46;;;;;;;;;21.50;21.50;;;;;;;;5025298;28;45444;-63
2022/04/24 11:55:12;;;;;;;;;23.25;21.50;;;;;;;;5022308;28;45414;-63
2022/04/24 11:57:37;;;;;;;;;20.50;20.50;;;;;;;;5032721;28;45399;-62
2022/04/24 12:00:05;;;;;;;;;26.50;22.50;;;;;;;;5031894;28;46797;-62
2022/04/24 12:02:30;;;;;;;;;26.75;23.50;;;;;;;;5032507;28;45364;-61
2022/04/24 12:04:59;;;;;;;;;20.75;20.75;;;;;;;;5023967;28;48049;-61
2022/04/24 12:07:31;;;;;;;;;18.50;17.25;;;;;;;;5022732;28;45478;-62
2022/04/24 12:09:59;;;;;;;;;21.25;21.25;;;;;;;;5028967;28;47447;-61
2022/04/24 12:12:24;;;;;;;;;19.25;17.50;;;;;;;;5034907;28;45496;-63
2022/04/24 12:14:53;;;;;;;;;17.25;17.25;;;;;;;;5035990;28;45329;-62
2022/04/24 12:17:18;;;;;;;;;19.00;16.00;;;;;;;;5035306;28;45410;-60
2022/04/24 12:19:51;;;;;;;;;20.50;20.50;;;;;;;;5029438;28;48538;-60
2022/04/24 12:22:16;;;;;;;;;23.00;23.00;;;;;;;;5025514;28;45387;-62
2022/04/24 12:24:43;;;;;;;;;21.50;21.50;;;;;;;;5034500;28;47395;-62
2022/04/24 12:27:09;;;;;;;;;22.50;21.25;;;;;;;;5034572;28;45434;-62
2022/04/24 12:29:41;;;;;;;;;20.75;20.75;;;;;;;;5036021;28;46665;-62
2022/04/24 12:32:06;;;;;;;;;21.00;21.00;;;;;;;;5034027;28;45487;-62
2022/04/24 12:34:45;;;;;;;;;22.00;22.00;;;;;;;;5029623;28;45330;-62
2022/04/24 12:37:12;;;;;;;;;23.25;20.50;;;;;;;;5024803;28;45320;-62
2022/04/24 12:39:37;;;;;;;;;22.25;22.25;;;;;;;;5032764;28;45843;-62
2022/04/24 12:42:16;;;;;;;;;15.75;14.75;;;;;;;;5034178;28;45516;-63
2022/04/24 12:44:42;;;;;;;;;18.25;17.50;;;;;;;;5036380;28;45284;-63
2022/04/24 12:47:07;;;;;;;;;16.00;16.00;;;;;;;;5034100;28;46192;-63
2022/04/24 12:49:33;;;;;;;;;16.50;16.50;;;;;;;;5033904;28;46219;-63
2022/04/24 12:51:58;;;;;;;;;18.00;15.50;;;;;;;;5034031;28;45549;-63
2022/04/24 12:54:23;;;;;;;;;18.75;17.25;;;;;;;;5034426;28;45598;-63
2022/04/24 12:56:49;;;;;;;;;17.50;17.50;;;;;;;;5032780;28;45389;-66
2022/04/24 12:59:14;;;;;;;;;24.00;19.00;;;;;;;;5028619;28;46519;-66
2022/04/24 13:01:41;;;;;;;;;14.25;14.25;;;;;;;;5027532;28;45408;-65
2022/04/24 13:04:06;;;;;;;;;18.25;18.25;;;;;;;;5032035;28;45556;-65
2022/04/24 13:06:31;;;;;;;;;18.75;18.75;;;;;;;;5032001;28;45456;-64
2022/04/24 13:08:56;;;;;;;;;22.25;21.00;;;;;;;;5028777;28;46671;-65
2022/04/24 13:11:26;;;;;;;;;19.50;19.25;;;;;;;;5030982;28;45537;-65
2022/04/24 13:13:52;;;;;;;;;20.00;20.00;;;;;;;;5031970;28;45761;-65
2022/04/24 13:19:01;;;;;;;;;17.75;15.25;;;;;;;;5029997;28;45524;-63
2022/04/24 13:21:26;;;;;;;;;19.50;17.75;;;;;;;;5030086;28;45887;-65
2022/04/24 13:23:51;;;;;;;;;17.75;17.75;;;;;;;;5033027;28;45397;-66
2022/04/24 13:26:17;;;;;;;;;16.50;13.75;;;;;;;;5028302;28;45373;-64
2022/04/24 13:28:42;;;;;;;;;21.25;21.25;;;;;;;;5025530;28;46567;-63
2022/04/24 13:31:07;;;;;;;;;16.75;13.75;;;;;;;;5031857;28;45424;-63
2022/04/24 13:33:32;;;;;;;;;20.00;18.50;;;;;;;;5031520;28;45555;-63
2022/04/24 13:36:00;;;;;;;;;24.50;19.50;;;;;;;;5031390;28;45400;-63
2022/04/24 13:38:25;;;;;;;;;19.50;19.50;;;;;;;;5033434;28;46597;-62
2022/04/24 13:40:51;;;;;;;;;19.25;19.25;;;;;;;;5030743;28;45464;-62
2022/04/24 13:43:19;;;;;;;;;20.25;19.00;;;;;;;;5026801;28;45400;-64
2022/04/24 13:45:45;;;;;;;;;16.00;15.25;;;;;;;;5019321;28;45433;-62
2022/04/24 13:48:12;;;;;;;;;12.50;11.00;;;;;;;;5030205;28;45583;-62
2022/04/24 13:50:38;;;;;;;;;21.75;19.50;;;;;;;;5033284;28;45453;-62
2022/04/24 13:53:04;;;;;;;;;19.25;16.25;;;;;;;;5031556;28;45626;-61
2022/04/24 13:55:29;;;;;;;;;16.25;15.25;;;;;;;;5030656;28;45507;-61
2022/04/24 13:57:55;;;;;;;;;16.00;16.00;;;;;;;;5028274;28;46992;-61
2022/04/24 14:00:21;;;;;;;;;20.00;19.25;;;;;;;;5031423;28;45659;-61
2022/04/24 14:02:49;;;;;;;;;17.75;15.00;;;;;;;;5032527;28;45542;-61
2022/04/24 14:05:14;;;;;;;;;16.75;16.75;;;;;;;;5031591;28;45380;-61
2022/04/24 14:07:39;;;;;;;;;15.75;15.75;;;;;;;;5030789;28;45793;-64
2022/04/24 14:10:05;;;;;;;;;16.75;15.75;;;;;;;;5030703;28;45489;-63
2022/04/24 14:12:30;;;;;;;;;14.25;13.25;;;;;;;;5031328;28;45577;-63
2022/04/24 14:14:55;;;;;;;;;16.50;15.50;;;;;;;;5032118;28;45318;-63
2022/04/24 14:17:20;;;;;;;;;15.75;15.00;;;;;;;;5032026;28;46286;-63